createdAt,value
2022-11-20T00:00:23.413Z,21.25
2022-11-20T00:02:50.044Z,25.88
2022-11-20T00:05:17.448Z,21.77
2022-11-20T00:07:44.810Z,22.85
2022-11-20T00:10:11.560Z,21.60
2022-11-20T00:15:05.592Z,17.77
2022-11-20T00:17:32.228Z,18.75
2022-11-20T00:19:58.924Z,20.83
2022-11-20T00:22:25.659Z,22.15
2022-11-20T00:24:52.339Z,19.95
2022-11-20T00:27:19.824Z,20.90
2022-11-20T00:29:46.514Z,24.67
2022-11-20T00:32:13.202Z,25.40
2022-11-20T00:34:39.986Z,25.17
2022-11-20T00:37:06.577Z,26.67
2022-11-20T00:39:33.810Z,28.55
2022-11-20T00:42:00.945Z,28.98
2022-11-20T00:44:27.650Z,32.80
2022-11-20T00:46:54.658Z,30.85
2022-11-20T00:49:21.445Z,26.00
2022-11-20T00:54:14.788Z,20.98
2022-11-20T00:56:41.611Z,23.35
2022-11-20T00:59:10.263Z,24.20
2022-11-20T01:01:37.541Z,22.40
2022-11-20T01:04:04.276Z,22.95
2022-11-20T01:06:33.559Z,24.20
2022-11-20T01:09:06.075Z,20.95
2022-11-20T01:11:36.343Z,21.05
2022-11-20T01:14:04.680Z,19.52
2022-11-20T01:16:34.520Z,20.23
2022-11-20T01:19:03.488Z,21.50
2022-11-20T01:21:36.483Z,21.58
2022-11-20T01:26:32.827Z,17.02
2022-11-20T01:29:01.067Z,18.15
2022-11-20T01:31:29.234Z,22.05
2022-11-20T01:34:03.702Z,19.75
2022-11-20T01:36:32.317Z,18.85
2022-11-20T01:39:01.997Z,19.35
2022-11-20T01:41:49.720Z,21.05
2022-11-20T01:44:21.329Z,16.00
2022-11-20T01:46:58.073Z,19.52
2022-11-20T01:49:30.296Z,18.63
2022-11-20T01:52:05.847Z,18.25
2022-11-20T01:54:40.737Z,19.55
2022-11-20T01:57:11.231Z,17.77
2022-11-20T01:59:43.443Z,18.70
2022-11-20T02:02:10.355Z,19.33
2022-11-20T02:04:39.911Z,20.88
2022-11-20T02:07:06.681Z,18.88
2022-11-20T02:12:00.426Z,18.27
2022-11-20T02:14:27.525Z,18.90
2022-11-20T02:16:56.043Z,18.98
2022-11-20T02:19:30.044Z,22.25
2022-11-20T02:21:56.765Z,20.15
2022-11-20T02:24:24.232Z,22.65
2022-11-20T02:26:55.496Z,19.95
2022-11-20T02:29:30.864Z,20.17
2022-11-20T02:31:59.936Z,21.25
2022-11-20T02:34:26.528Z,22.20
2022-11-20T02:36:54.226Z,22.63
2022-11-20T02:39:23.048Z,18.92
2022-11-20T02:41:49.950Z,20.98
2022-11-20T02:44:16.854Z,20.58
2022-11-20T02:49:10.015Z,18.45
2022-11-20T02:51:36.719Z,20.40
2022-11-20T02:54:04.035Z,21.15
2022-11-20T02:56:32.634Z,21.67
2022-11-20T02:59:00.584Z,21.45
2022-11-20T03:01:27.954Z,21.30
2022-11-20T03:03:55.825Z,22.63
2022-11-20T03:06:22.695Z,19.98
2022-11-20T03:11:16.294Z,17.05
2022-11-20T03:16:21.729Z,16.35
2022-11-20T03:18:48.863Z,18.88
2022-11-20T03:21:18.300Z,21.17
2022-11-20T03:23:45.057Z,19.95
2022-11-20T03:26:17.377Z,19.23
2022-11-20T03:28:53.269Z,20.02
2022-11-20T03:31:23.087Z,20.33
2022-11-20T03:33:49.965Z,18.52
2022-11-20T03:36:18.421Z,20.90
2022-11-20T03:38:45.171Z,20.17
2022-11-20T03:41:14.599Z,20.95
2022-11-20T03:43:41.405Z,19.85
2022-11-20T03:46:08.690Z,20.17
2022-11-20T03:48:35.721Z,21.05
2022-11-20T03:53:46.009Z,19.90
2022-11-20T03:56:17.650Z,20.80
2022-11-20T03:58:44.723Z,20.35
2022-11-20T04:01:15.874Z,22.52
2022-11-20T04:03:43.980Z,22.67
2022-11-20T04:06:13.985Z,22.20
2022-11-20T04:08:42.864Z,22.88
2022-11-20T04:11:21.506Z,26.00
2022-11-20T04:13:51.293Z,22.63
2022-11-20T04:16:18.968Z,22.20
2022-11-20T04:18:45.751Z,24.58
2022-11-20T04:21:13.570Z,25.08
2022-11-20T04:23:40.316Z,23.73
2022-11-20T04:26:11.554Z,23.23
2022-11-20T04:28:39.486Z,23.10
2022-11-20T04:31:09.123Z,22.38
2022-11-20T04:33:37.362Z,22.50
2022-11-20T04:36:11.391Z,22.05
2022-11-20T04:38:38.703Z,20.95
2022-11-20T04:41:08.450Z,21.38
2022-11-20T04:43:35.576Z,21.80
2022-11-20T04:46:02.718Z,20.85
2022-11-20T04:48:30.229Z,22.58
2022-11-20T04:50:57.849Z,22.60
2022-11-20T04:53:29.957Z,21.50
2022-11-20T04:56:05.336Z,24.02
2022-11-20T04:58:32.651Z,23.08
2022-11-20T05:01:07.916Z,23.55
2022-11-20T05:03:38.454Z,24.98
2022-11-20T05:06:09.154Z,22.55
2022-11-20T05:08:35.938Z,20.88
2022-11-20T05:11:09.081Z,21.63
2022-11-20T05:13:36.421Z,23.13
2022-11-20T05:16:05.065Z,21.33
2022-11-20T05:18:32.747Z,21.75
2022-11-20T05:23:28.679Z,20.92
2022-11-20T05:25:59.056Z,23.40
2022-11-20T05:28:28.119Z,21.52
2022-11-20T05:30:55.018Z,21.10
2022-11-20T05:35:49.837Z,22.17
2022-11-20T05:38:16.887Z,21.63
2022-11-20T05:40:43.733Z,22.40
2022-11-20T05:43:10.352Z,23.08
2022-11-20T05:45:37.029Z,22.92
2022-11-20T05:48:03.900Z,23.70
2022-11-20T05:50:30.552Z,22.50
2022-11-20T05:55:29.451Z,21.02
2022-11-20T05:57:56.160Z,22.20
2022-11-20T06:00:23.408Z,21.15
2022-11-20T06:02:50.284Z,22.20
2022-11-20T06:07:43.923Z,20.42
2022-11-20T06:10:18.205Z,20.98
2022-11-20T06:12:44.967Z,21.25
2022-11-20T06:15:11.679Z,19.10
2022-11-20T06:18:04.578Z,19.50
2022-11-20T06:20:31.307Z,20.77
2022-11-20T06:23:04.662Z,22.17
2022-11-20T06:25:31.404Z,22.15
2022-11-20T06:27:58.354Z,23.00
2022-11-20T06:30:25.113Z,21.27
2022-11-20T06:32:52.086Z,20.33
2022-11-20T06:37:45.500Z,24.85
2022-11-20T06:40:12.845Z,20.63
2022-11-20T06:42:39.562Z,19.98
2022-11-20T06:45:07.246Z,19.67
2022-11-20T06:47:34.426Z,19.83
2022-11-20T06:50:01.662Z,20.75
2022-11-20T06:52:31.326Z,13.88
2022-11-20T06:54:58.301Z,19.27
2022-11-20T06:59:54.854Z,21.70
2022-11-20T07:02:21.773Z,16.60
2022-11-20T07:04:48.956Z,17.08
2022-11-20T07:07:16.048Z,15.50
2022-11-20T07:09:42.725Z,17.02
2022-11-20T07:12:09.453Z,16.95
2022-11-20T07:14:36.381Z,21.38
2022-11-20T07:19:30.910Z,23.23
2022-11-20T07:21:57.757Z,18.13
2022-11-20T07:26:51.386Z,13.77
2022-11-20T07:29:18.522Z,20.77
2022-11-20T07:31:45.214Z,19.52
2022-11-20T07:34:11.858Z,17.58
2022-11-20T07:36:38.567Z,19.13
2022-11-20T07:39:05.311Z,17.60
2022-11-20T07:41:32.504Z,18.00
2022-11-20T07:43:59.525Z,17.50
2022-11-20T07:46:26.278Z,15.40
2022-11-20T07:48:53.381Z,16.88
2022-11-20T07:51:20.403Z,15.73
2022-11-20T07:53:54.707Z,15.35
2022-11-20T07:56:21.477Z,15.60
2022-11-20T07:58:48.256Z,23.67
2022-11-20T08:01:14.967Z,18.70
2022-11-20T08:03:41.734Z,17.88
2022-11-20T08:06:08.906Z,17.30
2022-11-20T08:08:40.020Z,18.73
2022-11-20T08:11:28.066Z,18.70
2022-11-20T08:14:13.231Z,18.45
2022-11-20T08:16:41.503Z,18.35
2022-11-20T08:19:08.792Z,19.10
2022-11-20T08:21:38.369Z,19.02
2022-11-20T08:24:06.073Z,17.42
2022-11-20T08:26:32.866Z,17.58
2022-11-20T08:29:00.033Z,19.52
2022-11-20T08:31:30.860Z,20.73
2022-11-20T08:33:58.017Z,20.13
2022-11-20T08:36:25.690Z,20.48
2022-11-20T08:38:54.820Z,25.98
2022-11-20T08:41:26.778Z,19.00
2022-11-20T08:44:08.446Z,20.10
2022-11-20T08:46:38.749Z,19.55
2022-11-20T08:49:08.854Z,18.95
2022-11-20T08:51:36.912Z,20.35
2022-11-20T08:54:04.232Z,22.20
2022-11-20T08:56:31.243Z,20.15
2022-11-20T09:01:44.980Z,19.15
2022-11-20T09:04:12.759Z,19.90
2022-11-20T09:06:39.515Z,20.10
2022-11-20T09:09:07.199Z,19.83
2022-11-20T09:11:35.400Z,20.33
2022-11-20T09:14:03.804Z,20.85
2022-11-20T09:16:30.673Z,20.38
2022-11-20T09:19:28.184Z,21.45
2022-11-20T09:21:43.979Z,20.70
2022-11-20T09:24:10.794Z,20.90
2022-11-20T09:26:37.433Z,20.20
2022-11-20T09:29:04.389Z,21.77
2022-11-20T09:31:31.522Z,21.02
2022-11-20T09:33:58.397Z,21.92
2022-11-20T09:38:51.528Z,19.58
2022-11-20T09:41:37.400Z,21.83
2022-11-20T09:44:32.151Z,20.48
2022-11-20T09:47:17.514Z,19.77
2022-11-20T09:50:08.975Z,22.52
2022-11-20T09:52:35.702Z,26.38
2022-11-20T09:55:05.194Z,20.92
2022-11-20T09:57:42.441Z,22.65
2022-11-20T10:00:14.400Z,21.42
2022-11-20T10:03:00.770Z,21.60
2022-11-20T10:05:46.071Z,20.10
2022-11-20T10:08:31.341Z,21.23
2022-11-20T10:11:09.308Z,20.65
2022-11-20T10:13:46.790Z,20.85
2022-11-20T10:16:29.264Z,22.92
2022-11-20T10:19:17.481Z,22.00
2022-11-20T10:21:53.254Z,22.52
2022-11-20T10:24:26.218Z,21.80
2022-11-20T10:27:08.087Z,21.48
2022-11-20T10:29:37.887Z,21.38
2022-11-20T10:32:12.625Z,20.25
2022-11-20T10:35:05.930Z,20.98
2022-11-20T10:37:37.095Z,21.90
2022-11-20T10:40:27.453Z,22.75
2022-11-20T10:44:14.920Z,23.15
2022-11-20T10:47:19.981Z,23.35
2022-11-20T10:49:53.171Z,25.10
2022-11-20T10:52:44.083Z,21.55
2022-11-20T10:55:40.094Z,22.27
2022-11-20T10:58:54.955Z,20.75
2022-11-20T11:01:25.524Z,22.08
2022-11-20T11:03:54.424Z,22.75
2022-11-20T11:06:26.034Z,23.45
2022-11-20T11:08:59.570Z,25.30
2022-11-20T11:11:32.014Z,25.92
2022-11-20T11:14:13.686Z,24.95
2022-11-20T11:16:58.771Z,25.45
2022-11-20T11:19:26.496Z,18.83
2022-11-20T11:21:57.934Z,23.30
2022-11-20T11:24:41.820Z,18.70
2022-11-20T11:27:18.824Z,11.80
2022-11-20T11:29:47.071Z,15.57
2022-11-20T11:32:25.626Z,14.93
2022-11-20T11:37:36.844Z,12.15
2022-11-20T11:43:00.658Z,10.60
2022-11-20T11:45:29.662Z,11.50
2022-11-20T11:47:59.786Z,11.02
2022-11-20T11:50:29.333Z,16.33
2022-11-20T11:53:15.728Z,12.93
2022-11-20T11:55:50.871Z,12.85
2022-11-20T11:58:29.182Z,12.23
2022-11-20T12:01:02.969Z,10.32
2022-11-20T12:03:39.344Z,11.45
2022-11-20T12:06:21.943Z,10.27
2022-11-20T12:09:17.173Z,10.93
2022-11-20T12:11:56.157Z,12.60
2022-11-20T12:14:35.275Z,13.02
2022-11-20T12:17:03.807Z,14.82
2022-11-20T12:19:34.469Z,13.63
2022-11-20T12:22:24.930Z,16.80
2022-11-20T12:24:57.420Z,14.20
2022-11-20T12:27:42.619Z,14.05
2022-11-20T12:30:12.608Z,15.40
2022-11-20T12:33:07.902Z,14.70
2022-11-20T12:35:44.285Z,10.60
2022-11-20T12:38:20.093Z,14.82
2022-11-20T12:41:55.989Z,15.90
2022-11-20T12:45:07.589Z,18.10
2022-11-20T12:48:03.618Z,18.23
2022-11-20T12:51:13.521Z,15.48
2022-11-20T12:54:11.916Z,16.60
2022-11-20T12:57:10.636Z,14.90
2022-11-20T13:00:22.223Z,14.77
2022-11-20T13:03:20.382Z,17.45
2022-11-20T13:06:02.327Z,16.23
2022-11-20T13:08:39.582Z,15.93
2022-11-20T13:11:18.557Z,16.38
2022-11-20T13:14:16.220Z,14.48
2022-11-20T13:17:09.424Z,16.38
2022-11-20T13:19:36.352Z,15.85
2022-11-20T13:22:03.071Z,15.45
2022-11-20T13:24:32.414Z,16.02
2022-11-20T13:27:05.078Z,16.30
2022-11-20T13:29:32.797Z,16.52
2022-11-20T13:32:17.669Z,15.95
2022-11-20T13:37:36.450Z,15.45
2022-11-20T13:43:08.348Z,15.02
2022-11-20T13:45:35.258Z,16.13
2022-11-20T13:48:06.416Z,15.45
2022-11-20T13:50:41.210Z,19.10
2022-11-20T13:53:35.939Z,17.25
2022-11-20T13:56:20.142Z,18.10
2022-11-20T13:59:14.831Z,21.13
2022-11-20T14:01:46.369Z,20.27
2022-11-20T14:04:21.407Z,24.95
2022-11-20T14:06:50.192Z,21.42
2022-11-20T14:09:33.272Z,21.58
2022-11-20T14:12:01.227Z,20.80
2022-11-20T14:14:37.510Z,20.50
2022-11-20T14:17:26.292Z,23.48
2022-11-20T14:19:54.323Z,21.83
2022-11-20T14:22:24.600Z,20.33
2022-11-20T14:25:13.268Z,22.77
2022-11-20T14:27:42.195Z,20.30
2022-11-20T14:30:16.850Z,22.73
2022-11-20T14:32:45.970Z,24.00
2022-11-20T14:35:35.496Z,25.70
2022-11-20T14:38:04.359Z,26.75
2022-11-20T14:40:34.411Z,25.77
2022-11-20T14:43:01.168Z,22.67
2022-11-20T14:45:28.609Z,27.08
2022-11-20T14:47:58.023Z,25.38
2022-11-20T14:50:27.959Z,25.88
2022-11-20T14:52:58.066Z,23.55
2022-11-20T14:55:28.449Z,25.52
2022-11-20T14:58:05.067Z,23.92
2022-11-20T15:00:33.412Z,24.65
2022-11-20T15:03:00.461Z,26.10
2022-11-20T15:05:47.672Z,26.08
2022-11-20T15:08:15.517Z,25.10
2022-11-20T15:10:50.570Z,27.40
2022-11-20T15:13:23.728Z,29.00
2022-11-20T15:15:53.364Z,28.48
2022-11-20T15:18:23.828Z,28.02
2022-11-20T15:20:51.185Z,28.55
2022-11-20T15:23:19.775Z,28.73
2022-11-20T15:25:48.306Z,28.23
2022-11-20T15:28:24.005Z,31.73
2022-11-20T15:30:51.100Z,26.52
2022-11-20T15:33:18.777Z,29.05
2022-11-20T15:35:46.537Z,31.75
2022-11-20T15:38:13.368Z,27.50
2022-11-20T15:43:12.863Z,25.33
2022-11-20T15:45:53.717Z,32.90
2022-11-20T15:48:24.460Z,32.10
2022-11-20T15:50:57.200Z,27.73
2022-11-20T15:53:28.766Z,27.83
2022-11-20T15:55:55.862Z,26.95
2022-11-20T16:00:50.742Z,25.75
2022-11-20T16:05:46.053Z,29.23
2022-11-20T16:08:13.218Z,27.30
2022-11-20T16:10:47.876Z,24.85
2022-11-20T16:13:35.646Z,24.63
2022-11-20T16:16:06.550Z,24.92
2022-11-20T16:18:33.538Z,26.23
2022-11-20T16:21:00.291Z,29.30
2022-11-20T16:23:26.935Z,26.58
2022-11-20T16:25:53.571Z,27.88
2022-11-20T16:28:20.650Z,26.85
2022-11-20T16:30:47.780Z,25.92
2022-11-20T16:33:16.689Z,25.98
2022-11-20T16:35:43.828Z,24.08
2022-11-20T16:38:10.662Z,25.00
2022-11-20T16:43:10.642Z,20.20
2022-11-20T16:45:46.435Z,21.45
2022-11-20T16:48:15.313Z,20.15
2022-11-20T16:50:52.417Z,21.50
2022-11-20T16:53:20.518Z,20.15
2022-11-20T16:55:47.986Z,18.10
2022-11-20T16:58:15.735Z,18.90
2022-11-20T17:00:46.862Z,18.85
2022-11-20T17:03:19.481Z,18.73
2022-11-20T17:05:46.220Z,18.50
2022-11-20T17:08:12.918Z,19.45
2022-11-20T17:10:39.602Z,19.13
2022-11-20T17:13:06.285Z,20.98
2022-11-20T17:15:32.940Z,21.75
2022-11-20T17:17:59.974Z,21.35
2022-11-20T17:20:26.617Z,22.05
2022-11-20T17:22:53.232Z,20.83
2022-11-20T17:25:20.702Z,19.80
2022-11-20T17:27:47.446Z,19.33
2022-11-20T17:30:14.266Z,20.50
2022-11-20T17:35:12.528Z,18.00
2022-11-20T17:37:39.385Z,17.30
2022-11-20T17:40:06.835Z,16.65
2022-11-20T17:42:37.034Z,17.42
2022-11-20T17:45:04.729Z,16.65
2022-11-20T17:47:31.513Z,16.77
2022-11-20T17:52:25.594Z,15.75
2022-11-20T17:57:42.344Z,15.52
2022-11-20T18:00:10.996Z,16.40
2022-11-20T18:02:37.616Z,16.55
2022-11-20T18:05:04.732Z,17.45
2022-11-20T18:07:31.480Z,17.80
2022-11-20T18:12:25.911Z,15.52
2022-11-20T18:14:52.755Z,15.63
2022-11-20T18:20:14.324Z,13.65
2022-11-20T18:22:38.196Z,12.55
2022-11-20T18:25:05.333Z,14.18
2022-11-20T18:27:32.300Z,14.15
2022-11-20T18:29:59.552Z,14.40
2022-11-20T18:32:26.415Z,15.05
2022-11-20T18:34:53.304Z,14.52
2022-11-20T18:39:46.904Z,12.68
2022-11-20T18:42:34.342Z,13.43
2022-11-20T18:45:02.386Z,12.98
2022-11-20T18:47:34.081Z,13.10
2022-11-20T18:50:01.553Z,14.88
2022-11-20T18:52:31.040Z,14.20
2022-11-20T18:54:57.678Z,13.73
2022-11-20T18:57:26.762Z,13.65
2022-11-20T18:59:55.097Z,14.80
2022-11-20T19:02:22.744Z,15.23
2022-11-20T19:04:49.559Z,14.75
2022-11-20T19:07:16.775Z,12.98
2022-11-20T19:09:48.727Z,13.40
2022-11-20T19:12:16.578Z,13.55
2022-11-20T19:14:43.287Z,14.00
2022-11-20T19:17:11.476Z,14.50
2022-11-20T19:19:38.459Z,16.35
2022-11-20T19:22:05.524Z,14.88
2022-11-20T19:24:32.243Z,13.50
2022-11-20T19:26:59.090Z,12.05
2022-11-20T19:31:54.004Z,12.05
2022-11-20T19:36:48.943Z,11.98
2022-11-20T19:39:15.842Z,11.00
2022-11-20T19:41:43.334Z,11.43
2022-11-20T19:44:13.975Z,9.68
2022-11-20T19:46:41.825Z,12.38
2022-11-20T19:49:11.874Z,10.20
2022-11-20T19:51:45.843Z,11.27
2022-11-20T19:54:13.411Z,11.77
2022-11-20T19:56:40.333Z,10.38
2022-11-20T20:01:35.308Z,10.63
2022-11-20T20:04:03.678Z,10.77
2022-11-20T20:06:32.517Z,10.15
2022-11-20T20:09:10.419Z,9.20
2022-11-20T20:11:37.534Z,10.40
2022-11-20T20:14:07.528Z,8.93
2022-11-20T20:16:35.345Z,7.80
2022-11-20T20:19:03.705Z,9.90
2022-11-20T20:21:34.508Z,8.38
2022-11-20T20:24:01.458Z,8.82
2022-11-20T20:26:30.757Z,9.85
2022-11-20T20:29:00.837Z,8.95
2022-11-20T20:31:39.516Z,9.65
2022-11-20T20:34:06.632Z,9.05
2022-11-20T20:36:34.815Z,7.35
2022-11-20T20:39:03.664Z,8.48
2022-11-20T20:41:31.120Z,8.20
2022-11-20T20:44:16.661Z,8.77
2022-11-20T20:46:43.851Z,8.25
2022-11-20T20:49:10.552Z,6.95
2022-11-20T20:54:04.745Z,6.57
2022-11-20T20:56:31.584Z,7.55
2022-11-20T21:01:29.666Z,6.78
2022-11-20T21:03:57.453Z,6.57
2022-11-20T21:06:24.599Z,6.88
2022-11-20T21:08:51.637Z,6.15
2022-11-20T21:11:20.275Z,7.55
2022-11-20T21:13:47.865Z,7.07
2022-11-20T21:16:17.338Z,7.13
2022-11-20T21:18:44.073Z,6.82
2022-11-20T21:21:32.410Z,6.53
2022-11-20T21:23:59.399Z,7.78
2022-11-20T21:26:26.585Z,8.30
2022-11-20T21:28:53.798Z,7.28
2022-11-20T21:31:23.546Z,7.75
2022-11-20T21:33:53.467Z,7.47
2022-11-20T21:36:22.931Z,7.25
2022-11-20T21:38:52.074Z,6.65
2022-11-20T21:41:19.217Z,6.30
2022-11-20T21:43:51.543Z,9.48
2022-11-20T21:46:26.643Z,10.25
2022-11-20T21:48:53.506Z,9.82
2022-11-20T21:51:22.151Z,9.85
2022-11-20T21:53:50.031Z,8.65
2022-11-20T21:56:20.749Z,9.68
2022-11-20T21:58:49.053Z,8.45
2022-11-20T22:01:17.385Z,9.25
2022-11-20T22:03:49.301Z,7.60
2022-11-20T22:06:17.462Z,7.72
2022-11-20T22:08:45.100Z,7.93
2022-11-20T22:11:14.404Z,7.78
2022-11-20T22:14:00.477Z,7.80
2022-11-20T22:16:43.600Z,7.90
2022-11-20T22:19:10.424Z,8.18
2022-11-20T22:21:39.665Z,7.35
2022-11-20T22:24:06.437Z,7.32
2022-11-20T22:29:08.138Z,6.88
2022-11-20T22:31:38.246Z,6.90
2022-11-20T22:34:04.933Z,7.85
2022-11-20T22:36:32.137Z,7.32
2022-11-20T22:39:02.219Z,7.20
2022-11-20T22:41:29.880Z,6.43
2022-11-20T22:43:58.735Z,6.22
2022-11-20T22:46:27.406Z,5.13
2022-11-20T22:48:59.586Z,6.25
2022-11-20T22:51:35.260Z,5.45
2022-11-20T22:54:03.600Z,7.25
2022-11-20T22:56:31.099Z,5.72
2022-11-20T22:58:58.184Z,6.57
2022-11-20T23:01:30.929Z,5.55
2022-11-20T23:06:29.737Z,6.47
2022-11-20T23:08:56.619Z,5.95
2022-11-20T23:11:25.583Z,5.25
2022-11-20T23:13:56.045Z,6.32
2022-11-20T23:16:23.355Z,6.47
2022-11-20T23:18:55.565Z,6.50
2022-11-20T23:21:22.741Z,5.45
2022-11-20T23:23:51.917Z,8.50
2022-11-20T23:26:20.661Z,4.85
2022-11-20T23:28:47.469Z,5.93
2022-11-20T23:31:15.676Z,7.60
2022-11-20T23:33:45.169Z,8.15
2022-11-20T23:36:13.209Z,5.93
2022-11-20T23:38:40.523Z,7.50
2022-11-20T23:41:07.545Z,7.47
2022-11-20T23:43:34.635Z,5.18
2022-11-20T23:46:02.142Z,8.85
2022-11-20T23:48:32.038Z,5.80
2022-11-20T23:50:59.270Z,6.63
2022-11-20T23:53:28.262Z,6.10
2022-11-20T23:55:58.570Z,4.53
2022-11-20T23:58:30.247Z,6.13
